Time;durP1;ratioP1;P1;durP2;ratioP2;P2;SDS_P1;SDS_P2;PMS_P1;PMS_P2;Temp;Humidity;BMP_temperature;BMP_pressure;BME280_temperature;BME280_humidity;BME280_pressure;Samples;Min_cycle;Max_cycle;Signal;HPM_P1;HPM_P2
2023/10/22 00:01:49;;;;;;;3.92;1.25;;;11.30;99.90;;;;;;4976808;28;20495;-68
2023/10/22 00:04:15;;;;;;;1.80;1.17;;;11.30;99.90;;;;;;5017044;28;20581;-68
2023/10/22 00:06:44;;;;;;;4.25;1.35;;;11.30;99.90;;;;;;5038659;28;20617;-68
2023/10/22 00:09:10;;;;;;;5.65;1.42;;;11.20;99.90;;;;;;5028366;28;20715;-68
2023/10/22 00:11:37;;;;;;;3.35;1.33;;;11.20;99.90;;;;;;5015947;28;20762;-68
2023/10/22 00:14:04;;;;;;;4.18;1.27;;;11.20;99.90;;;;;;5031109;28;21758;-68
2023/10/22 00:16:31;;;;;;;1.92;1.17;;;11.20;99.90;;;;;;4996102;28;20647;-68
2023/10/22 00:18:58;;;;;;;2.97;1.02;;;;;;;;;;5032098;28;20628;-68
2023/10/22 00:21:25;;;;;;;1.58;1.00;;;11.10;99.90;;;;;;5019812;28;20209;-68
2023/10/22 00:23:53;;;;;;;1.73;1.02;;;11.00;99.90;;;;;;5023071;28;20197;-68
2023/10/22 00:26:20;;;;;;;3.85;1.27;;;11.00;99.90;;;;;;5017582;28;20228;-68
2023/10/22 00:28:47;;;;;;;3.50;1.38;;;11.00;99.90;;;;;;5037790;28;20231;-68
2023/10/22 00:31:14;;;;;;;3.75;1.20;;;10.90;99.90;;;;;;4999939;28;20888;-68
2023/10/22 00:33:41;;;;;;;1.25;0.80;;;11.00;99.90;;;;;;5026701;28;20693;-68
2023/10/22 00:36:08;;;;;;;1.55;1.17;;;11.00;99.90;;;;;;5010779;28;20228;-68
2023/10/22 00:38:34;;;;;;;3.25;1.00;;;11.00;99.90;;;;;;5034343;28;20200;-67
2023/10/22 00:41:03;;;;;;;2.85;1.10;;;11.00;99.90;;;;;;5017060;28;20204;-68
2023/10/22 00:43:29;;;;;;;2.13;0.88;;;11.00;99.90;;;;;;5022863;28;20960;-68
2023/10/22 00:45:57;;;;;;;2.08;1.00;;;10.90;99.90;;;;;;5026373;28;20211;-68
2023/10/22 00:48:26;;;;;;;6.45;1.10;;;10.90;99.90;;;;;;5009436;28;20221;-68
2023/10/22 00:50:53;;;;;;;1.80;1.02;;;10.90;99.90;;;;;;5021107;28;20212;-68
2023/10/22 00:53:21;;;;;;;2.90;1.33;;;10.90;99.90;;;;;;5034031;28;20196;-68
2023/10/22 00:55:50;;;;;;;3.60;1.23;;;10.80;99.90;;;;;;5031092;28;20211;-68
2023/10/22 00:58:20;;;;;;;1.13;0.85;;;11.10;99.90;;;;;;5023476;28;20202;-68
2023/10/22 01:00:47;;;;;;;1.80;0.98;;;10.70;99.90;;;;;;5039686;28;20207;-68
2023/10/22 01:03:16;;;;;;;2.78;1.25;;;10.70;99.90;;;;;;4999137;28;20504;-68
2023/10/22 01:05:43;;;;;;;1.35;0.88;;;10.70;99.90;;;;;;5034546;28;20208;-68
2023/10/22 01:08:10;;;;;;;1.77;1.10;;;10.70;99.90;;;;;;5015323;28;20706;-68
2023/10/22 01:10:37;;;;;;;1.70;1.05;;;10.70;99.90;;;;;;5035309;28;20193;-68
2023/10/22 01:13:05;;;;;;;0.90;0.85;;;10.70;99.90;;;;;;5011686;28;20792;-68
2023/10/22 01:15:34;;;;;;;1.55;0.90;;;10.70;99.90;;;;;;5033225;28;20208;-68
2023/10/22 01:18:01;;;;;;;3.47;1.02;;;10.60;99.90;;;;;;4995135;28;20675;-68
2023/10/22 01:20:27;;;;;;;2.17;1.30;;;10.60;99.90;;;;;;5031431;28;20860;-68
2023/10/22 01:22:54;;;;;;;1.58;0.88;;;10.60;99.90;;;;;;5020311;28;20967;-68
2023/10/22 01:25:22;;;;;;;1.85;0.88;;;10.60;99.90;;;;;;5029418;28;20861;-68
2023/10/22 01:27:49;;;;;;;9.07;0.90;;;10.60;99.90;;;;;;5018589;28;20221;-68
2023/10/22 01:30:16;;;;;;;3.55;1.25;;;10.60;99.90;;;;;;5033254;28;20189;-68
2023/10/22 01:32:43;;;;;;;2.67;1.05;;;10.60;99.90;;;;;;5038510;28;20311;-67
2023/10/22 01:35:10;;;;;;;7.97;1.33;;;10.60;99.90;;;;;;4995796;28;20229;-68
2023/10/22 01:37:37;;;;;;;2.47;1.00;;;12.80;99.90;;;;;;5020839;28;20439;-68
2023/10/22 01:40:04;;;;;;;3.17;0.80;;;10.60;99.90;;;;;;5040007;28;20327;-68
2023/10/22 01:42:33;;;;;;;3.20;1.08;;;10.60;99.90;;;;;;5026844;28;20193;-68
2023/10/22 01:45:00;;;;;;;2.78;1.17;;;10.60;99.90;;;;;;5037310;28;20197;-68
2023/10/22 01:47:26;;;;;;;5.95;0.98;;;10.60;99.90;;;;;;5036884;28;20192;-68
2023/10/22 01:49:53;;;;;;;2.97;1.23;;;10.50;99.90;;;;;;5003465;28;20324;-68
2023/10/22 01:52:21;;;;;;;4.07;1.40;;;10.50;99.90;;;;;;5036893;28;20198;-68
2023/10/22 01:54:47;;;;;;;3.33;0.95;;;10.50;99.90;;;;;;5020626;28;20517;-68
2023/10/22 01:57:14;;;;;;;1.88;0.90;;;10.50;99.90;;;;;;5039884;28;20212;-68
2023/10/22 01:59:42;;;;;;;5.35;1.15;;;10.50;99.90;;;;;;5018523;28;20215;-68
2023/10/22 02:02:09;;;;;;;1.50;1.00;;;10.50;99.90;;;;;;5040819;28;20943;-68
2023/10/22 02:04:36;;;;;;;5.40;1.38;;;10.60;99.90;;;;;;4999481;28;20888;-68
2023/10/22 02:07:04;;;;;;;0.98;0.80;;;10.40;99.90;;;;;;5038832;28;20295;-68
2023/10/22 02:09:31;;;;;;;2.42;1.10;;;10.40;99.90;;;;;;5023939;28;20232;-68
2023/10/22 02:11:58;;;;;;;2.33;1.05;;;10.50;99.90;;;;;;5036223;28;20204;-68
2023/10/22 02:14:25;;;;;;;3.03;0.95;;;10.50;99.90;;;;;;5028110;28;20200;-68
2023/10/22 02:16:53;;;;;;;4.78;1.00;;;10.50;99.90;;;;;;5028700;28;20311;-68
2023/10/22 02:19:20;;;;;;;3.97;1.10;;;10.40;99.90;;;;;;5036495;28;20216;-68
2023/10/22 02:21:47;;;;;;;2.28;1.35;;;10.40;99.90;;;;;;4996937;28;20344;-68
2023/10/22 02:24:14;;;;;;;1.23;0.90;;;10.40;99.90;;;;;;5021696;28;20212;-68
2023/10/22 02:26:41;;;;;;;2.60;1.10;;;10.40;99.90;;;;;;5031563;28;20209;-68
2023/10/22 02:29:08;;;;;;;7.13;1.02;;;10.30;99.90;;;;;;5031289;28;20256;-67
2023/10/22 02:31:35;;;;;;;3.08;1.00;;;10.20;99.90;;;;;;5014013;28;20208;-68
2023/10/22 02:34:05;;;;;;;2.22;1.17;;;10.20;99.90;;;;;;5032875;28;20272;-68
2023/10/22 02:36:31;;;;;;;2.05;1.50;;;10.20;99.90;;;;;;4996507;28;20215;-68
2023/10/22 02:38:59;;;;;;;4.18;1.13;;;10.10;99.90;;;;;;5025087;28;20208;-67
2023/10/22 02:41:26;;;;;;;3.50;1.10;;;10.10;99.90;;;;;;5034871;28;20231;-68
2023/10/22 02:43:53;;;;;;;1.40;0.80;;;10.10;99.90;;;;;;5036995;28;20444;-68
2023/10/22 02:46:20;;;;;;;3.80;1.65;;;10.20;99.90;;;;;;5024833;28;20212;-68
2023/10/22 02:48:47;;;;;;;2.67;1.00;;;10.10;99.90;;;;;;5036435;28;20517;-68
2023/10/22 02:51:16;;;;;;;3.95;0.90;;;10.20;99.90;;;;;;5043279;28;20380;-68
2023/10/22 02:53:44;;;;;;;3.47;1.20;;;10.10;99.90;;;;;;5009140;28;20683;-67
2023/10/22 02:56:11;;;;;;;1.58;0.82;;;10.20;99.90;;;;;;5027279;28;20574;-68
2023/10/22 02:58:40;;;;;;;5.32;1.50;;;10.00;99.90;;;;;;5035014;28;20201;-68
2023/10/22 03:01:07;;;;;;;2.92;1.17;;;10.00;99.90;;;;;;5039925;28;20193;-68
2023/10/22 03:03:38;;;;;;;1.35;1.00;;;10.10;99.90;;;;;;5022455;28;20216;-68
2023/10/22 03:06:05;;;;;;;3.63;1.10;;;10.10;99.90;;;;;;5034998;28;20197;-68
2023/10/22 03:08:34;;;;;;;1.60;0.90;;;10.10;99.90;;;;;;5002974;28;20231;-68
2023/10/22 03:11:01;;;;;;;2.50;0.70;;;10.60;99.90;;;;;;5022878;28;20192;-68
2023/10/22 03:13:28;;;;;;;2.22;0.90;;;10.00;99.90;;;;;;5038171;28;20196;-68
2023/10/22 03:15:55;;;;;;;3.63;0.93;;;10.00;99.90;;;;;;5036007;28;20204;-68
2023/10/22 03:18:22;;;;;;;2.10;0.77;;;10.10;99.90;;;;;;5023690;28;20200;-68
2023/10/22 03:20:50;;;;;;;3.33;1.08;;;10.00;99.90;;;;;;5032516;28;20977;-68
2023/10/22 03:23:16;;;;;;;2.67;0.75;;;10.10;99.90;;;;;;4996610;28;20213;-68
2023/10/22 03:25:45;;;;;;;4.15;1.20;;;10.70;99.90;;;;;;5018068;28;20201;-67
2023/10/22 03:28:11;;;;;;;5.35;1.10;;;10.00;99.90;;;;;;5023918;28;20521;-68
2023/10/22 03:30:38;;;;;;;2.55;0.85;;;10.10;99.90;;;;;;5035655;28;20197;-68
2023/10/22 03:33:05;;;;;;;7.55;1.35;;;9.10;99.90;;;;;;5008256;28;20458;-67
2023/10/22 03:35:35;;;;;;;2.30;0.82;;;10.10;99.90;;;;;;5035643;28;20224;-67
2023/10/22 03:38:02;;;;;;;2.50;0.90;;;11.00;99.90;;;;;;4996254;28;21717;-68
2023/10/22 03:40:29;;;;;;;1.30;1.00;;;10.10;99.90;;;;;;5039686;28;20201;-67
2023/10/22 03:42:57;;;;;;;1.38;1.02;;;9.70;99.90;;;;;;5019184;28;20208;-67
2023/10/22 03:45:24;;;;;;;1.38;1.10;;;10.10;99.90;;;;;;5035539;28;20313;-68
2023/10/22 03:47:51;;;;;;;1.95;1.15;;;10.10;99.90;;;;;;5012459;28;20204;-68
2023/10/22 03:50:17;;;;;;;3.20;1.00;;;10.10;99.90;;;;;;5043149;28;20232;-68
2023/10/22 03:52:44;;;;;;;0.85;0.85;;;10.00;99.90;;;;;;5041835;28;20578;-67
2023/10/22 03:55:11;;;;;;;1.48;0.95;;;10.00;99.90;;;;;;4999232;28;21950;-68
2023/10/22 03:57:38;;;;;;;2.70;0.80;;;10.00;99.90;;;;;;5025579;28;20200;-68
2023/10/22 04:00:07;;;;;;;1.10;0.80;;;10.10;99.90;;;;;;5037265;28;20312;-67
2023/10/22 04:02:34;;;;;;;4.40;1.10;;;10.00;99.90;;;;;;5044947;28;20216;-68
2023/10/22 04:05:01;;;;;;;1.00;0.90;;;10.00;99.90;;;;;;5023351;28;20595;-68
2023/10/22 04:07:30;;;;;;;5.15;1.00;;;10.00;99.90;;;;;;5033393;28;20201;-68
2023/10/22 04:09:57;;;;;;;1.83;1.00;;;10.00;99.90;;;;;;5003482;28;21448;-68
2023/10/22 04:12:24;;;;;;;2.55;0.88;;;10.00;99.90;;;;;;5025304;28;20204;-67
2023/10/22 04:14:51;;;;;;;4.85;1.10;;;8.60;99.90;;;;;;5037770;28;20207;-67
2023/10/22 04:17:19;;;;;;;2.35;1.10;;;10.10;99.90;;;;;;5037554;28;20197;-67
2023/10/22 04:19:45;;;;;;;3.38;0.82;;;10.10;99.90;;;;;;5024441;28;20216;-68
2023/10/22 04:22:12;;;;;;;4.63;1.02;;;10.10;99.90;;;;;;5042412;28;21952;-68
2023/10/22 04:24:39;;;;;;;1.58;1.00;;;10.10;99.90;;;;;;5029209;28;20218;-68
2023/10/22 04:27:06;;;;;;;4.85;1.00;;;10.10;99.90;;;;;;5005197;28;20231;-68
2023/10/22 04:29:33;;;;;;;3.83;1.20;;;10.20;99.90;;;;;;5020077;28;20311;-68
2023/10/22 04:31:59;;;;;;;2.08;0.80;;;10.30;99.90;;;;;;5031739;28;20434;-68
2023/10/22 04:34:27;;;;;;;5.10;1.35;;;10.20;99.90;;;;;;5025254;28;20232;-68
2023/10/22 04:36:54;;;;;;;1.85;0.85;;;10.30;99.90;;;;;;5029228;28;20853;-68
2023/10/22 04:39:22;;;;;;;2.47;1.00;;;10.30;99.90;;;;;;5038703;28;20206;-68
2023/10/22 04:41:49;;;;;;;5.43;0.95;;;10.30;99.90;;;;;;5000826;28;20223;-67
2023/10/22 04:44:16;;;;;;;2.00;0.93;;;10.30;99.90;;;;;;5016612;28;20675;-68
2023/10/22 04:46:42;;;;;;;2.58;0.80;;;10.30;99.90;;;;;;5033173;28;20201;-68
2023/10/22 04:49:09;;;;;;;2.58;0.95;;;10.30;99.90;;;;;;5034685;28;20487;-67
2023/10/22 04:51:38;;;;;;;0.98;0.80;;;10.40;99.90;;;;;;5021868;28;20205;-68
2023/10/22 04:54:06;;;;;;;3.10;0.80;;;10.40;99.90;;;;;;5028509;28;20531;-68
2023/10/22 04:56:33;;;;;;;3.35;0.85;;;10.40;99.90;;;;;;5001871;28;20217;-68
2023/10/22 04:58:59;;;;;;;2.50;0.95;;;10.60;99.90;;;;;;5014579;28;20298;-68
2023/10/22 05:01:26;;;;;;;0.75;0.65;;;10.50;99.90;;;;;;5038725;28;20200;-68
2023/10/22 05:03:53;;;;;;;1.92;0.85;;;10.50;99.90;;;;;;5035660;28;20201;-68
2023/10/22 05:06:20;;;;;;;1.17;0.90;;;10.50;99.90;;;;;;5021243;28;22518;-68
2023/10/22 05:08:48;;;;;;;3.78;1.02;;;10.60;99.90;;;;;;5033965;28;20197;-68
2023/10/22 05:11:16;;;;;;;1.30;0.75;;;10.60;99.90;;;;;;5026151;28;20205;-68
2023/10/22 05:13:44;;;;;;;3.10;1.20;;;10.60;99.90;;;;;;4992044;28;20639;-67
2023/10/22 05:16:11;;;;;;;2.97;1.23;;;10.30;99.90;;;;;;5021008;28;20197;-67
2023/10/22 05:18:38;;;;;;;1.52;1.17;;;10.60;99.90;;;;;;5042843;28;20209;-68
2023/10/22 05:21:07;;;;;;;3.40;0.95;;;10.70;99.90;;;;;;5021547;28;21477;-68
2023/10/22 05:23:35;;;;;;;1.58;0.85;;;10.60;99.90;;;;;;5027127;28;20227;-68
2023/10/22 05:26:11;;;;;;;2.72;0.85;;;10.70;99.90;;;;;;5031753;28;20216;-68
2023/10/22 05:28:38;;;;;;;3.35;0.98;;;10.70;99.90;;;;;;5003478;28;20256;-68
2023/10/22 05:31:12;;;;;;;2.08;0.70;;;10.30;99.90;;;;;;5019845;28;20706;-68
2023/10/22 05:33:39;;;;;;;2.67;1.10;;;10.80;99.90;;;;;;5035869;28;20228;-67
2023/10/22 05:36:14;;;;;;;2.63;0.93;;;10.70;99.90;;;;;;5017163;28;20200;-68
2023/10/22 05:38:41;;;;;;;3.67;1.50;;;10.70;99.90;;;;;;5038487;28;20212;-68
2023/10/22 05:41:10;;;;;;;4.00;0.90;;;10.70;99.90;;;;;;5034987;28;21167;-68
2023/10/22 05:43:37;;;;;;;4.93;0.80;;;10.80;99.90;;;;;;5037531;28;20213;-67
2023/10/22 05:46:03;;;;;;;2.17;0.68;;;10.80;99.90;;;;;;4988799;28;20402;-68
2023/10/22 05:48:30;;;;;;;3.65;1.00;;;10.70;99.90;;;;;;5032212;28;20470;-68
2023/10/22 05:50:58;;;;;;;2.58;0.80;;;10.80;99.90;;;;;;5009817;28;20221;-68
2023/10/22 05:53:25;;;;;;;0.90;0.73;;;10.80;99.90;;;;;;5033080;28;20225;-68
2023/10/22 05:55:58;;;;;;;4.15;0.75;;;10.80;99.90;;;;;;5036431;28;20607;-67
2023/10/22 05:58:27;;;;;;;2.25;0.90;;;10.80;99.90;;;;;;5035036;28;20208;-67
2023/10/22 06:00:54;;;;;;;0.85;0.60;;;11.00;99.90;;;;;;4991523;28;20216;-68
2023/10/22 06:03:21;;;;;;;1.27;0.82;;;10.80;99.90;;;;;;5035789;28;20206;-67
2023/10/22 06:05:48;;;;;;;2.35;1.00;;;10.70;99.90;;;;;;5029662;28;20237;-67
2023/10/22 06:08:15;;;;;;;3.33;0.90;;;10.70;99.90;;;;;;5005229;28;20200;-68
2023/10/22 06:10:43;;;;;;;2.88;1.00;;;10.80;99.90;;;;;;5040334;28;20323;-68
2023/10/22 06:13:10;;;;;;;4.95;0.88;;;10.80;99.90;;;;;;5022718;28;20217;-68
2023/10/22 06:15:39;;;;;;;1.70;0.80;;;10.70;99.90;;;;;;4996646;28;20208;-68
2023/10/22 06:18:07;;;;;;;3.20;1.00;;;10.80;99.90;;;;;;5036231;28;20296;-67
2023/10/22 06:20:35;;;;;;;2.67;0.70;;;10.10;99.90;;;;;;5038496;28;20437;-68
2023/10/22 06:23:03;;;;;;;2.60;0.82;;;10.70;99.90;;;;;;5025752;28;20206;-67
2023/10/22 06:25:31;;;;;;;1.70;1.00;;;10.80;99.90;;;;;;5035181;28;20630;-68
2023/10/22 06:27:59;;;;;;;3.80;0.98;;;10.80;99.90;;;;;;5036319;28;20209;-67
2023/10/22 06:30:26;;;;;;;1.20;0.90;;;10.90;99.90;;;;;;5028111;28;20636;-68
2023/10/22 06:32:56;;;;;;;3.83;0.85;;;10.90;99.90;;;;;;4996158;28;20245;-67
2023/10/22 06:35:23;;;;;;;1.83;0.80;;;10.90;99.90;;;;;;5040011;28;20422;-67
2023/10/22 06:37:51;;;;;;;2.55;1.00;;;10.90;99.90;;;;;;5040191;28;20194;-67
2023/10/22 06:40:19;;;;;;;4.60;0.98;;;11.00;99.90;;;;;;5024544;28;20220;-67
2023/10/22 06:42:46;;;;;;;1.90;0.63;;;11.00;99.90;;;;;;5031110;28;20220;-68
2023/10/22 06:45:12;;;;;;;1.45;0.70;;;11.00;99.90;;;;;;5020840;28;20197;-67
2023/10/22 06:47:40;;;;;;;3.88;0.63;;;11.10;99.90;;;;;;4992704;28;20605;-68
2023/10/22 06:50:10;;;;;;;0.93;0.73;;;11.10;99.90;;;;;;5032230;28;20278;-67
2023/10/22 06:52:37;;;;;;;2.08;0.82;;;11.10;99.90;;;;;;5037636;28;20560;-67
2023/10/22 06:55:05;;;;;;;1.65;0.70;;;11.10;99.90;;;;;;5020658;28;20221;-68
2023/10/22 06:57:32;;;;;;;1.10;0.68;;;11.30;99.90;;;;;;5033804;28;20751;-68
2023/10/22 06:59:59;;;;;;;2.45;1.00;;;11.20;99.90;;;;;;5027070;28;20224;-68
2023/10/22 07:02:27;;;;;;;2.13;0.70;;;11.30;99.90;;;;;;5012461;28;20200;-68
2023/10/22 07:04:54;;;;;;;3.25;0.88;;;11.20;99.90;;;;;;4993453;28;20226;-68
2023/10/22 07:07:23;;;;;;;2.25;0.88;;;11.20;99.90;;;;;;5024061;28;20204;-68
2023/10/22 07:09:50;;;;;;;0.73;0.50;;;11.20;99.90;;;;;;5032515;28;21397;-68
2023/10/22 07:12:17;;;;;;;1.48;0.80;;;11.30;99.90;;;;;;5012452;28;20753;-68
2023/10/22 07:14:44;;;;;;;4.43;0.77;;;11.30;99.90;;;;;;5036198;28;20201;-68
2023/10/22 07:17:11;;;;;;;2.92;1.00;;;11.30;99.90;;;;;;5030442;28;20691;-68
2023/10/22 07:19:38;;;;;;;2.40;0.75;;;11.30;99.90;;;;;;4996535;28;20216;-68
2023/10/22 07:22:05;;;;;;;1.85;0.75;;;11.30;99.90;;;;;;5023631;28;20224;-68
2023/10/22 07:24:34;;;;;;;3.08;0.85;;;11.40;99.90;;;;;;5032421;28;20456;-68
2023/10/22 07:27:01;;;;;;;4.75;0.95;;;11.40;99.90;;;;;;5023518;28;20217;-67
2023/10/22 07:29:28;;;;;;;1.13;0.82;;;11.40;99.90;;;;;;5036677;28;20207;-68
2023/10/22 07:31:54;;;;;;;1.33;0.90;;;11.40;99.90;;;;;;5038848;28;20221;-68
2023/10/22 07:34:22;;;;;;;2.42;1.10;;;11.40;99.90;;;;;;4974395;28;22402;-68
2023/10/22 07:36:49;;;;;;;2.42;1.02;;;11.40;99.90;;;;;;5010405;28;20200;-68
2023/10/22 07:39:16;;;;;;;3.05;1.20;;;11.10;99.90;;;;;;5028511;28;21011;-68
2023/10/22 07:41:44;;;;;;;2.65;1.10;;;11.50;99.90;;;;;;5013216;28;20209;-68
2023/10/22 07:44:11;;;;;;;1.23;1.00;;;11.40;99.90;;;;;;5027455;28;20300;-68
2023/10/22 07:46:38;;;;;;;1.80;1.20;;;11.50;99.90;;;;;;5028550;28;20738;-67
2023/10/22 07:49:05;;;;;;;1.23;0.95;;;11.60;99.90;;;;;;5013599;28;22570;-68
2023/10/22 07:51:31;;;;;;;1.83;1.20;;;11.50;99.90;;;;;;4994453;28;20242;-68
2023/10/22 07:53:58;;;;;;;1.50;1.20;;;11.40;99.90;;;;;;5008299;28;20643;-68
2023/10/22 07:56:25;;;;;;;2.65;1.42;;;11.60;99.90;;;;;;5017963;28;20948;-68
2023/10/22 07:58:53;;;;;;;1.40;1.30;;;11.80;99.90;;;;;;5028903;28;21967;-68
2023/10/22 08:01:23;;;;;;;1.85;1.60;;;11.60;99.90;;;;;;5026469;28;20589;-68
2023/10/22 08:03:50;;;;;;;4.43;2.50;;;11.60;99.90;;;;;;5005859;28;20312;-67
2023/10/22 08:06:17;;;;;;;4.50;2.20;;;11.70;99.90;;;;;;4995536;28;20221;-68
2023/10/22 08:08:44;;;;;;;5.38;2.83;;;11.70;99.90;;;;;;5018766;28;20468;-68
2023/10/22 08:11:11;;;;;;;6.32;3.72;;;12.30;99.90;;;;;;5008288;28;20751;-68
2023/10/22 08:13:37;;;;;;;5.07;2.95;;;11.90;99.90;;;;;;5026222;28;20221;-68
2023/10/22 08:16:06;;;;;;;6.07;2.42;;;11.80;99.90;;;;;;5026734;28;20708;-68
2023/10/22 08:18:33;;;;;;;2.72;1.92;;;11.90;99.90;;;;;;5028775;28;20292;-68
2023/10/22 08:21:04;;;;;;;2.95;1.70;;;11.80;99.90;;;;;;5019590;28;20208;-69
2023/10/22 08:23:31;;;;;;;2.05;1.55;;;11.70;99.90;;;;;;5006820;28;20232;-68
2023/10/22 08:25:58;;;;;;;2.92;2.00;;;11.10;99.90;;;;;;5037924;28;20805;-68
2023/10/22 08:28:25;;;;;;;1.90;1.80;;;11.80;99.90;;;;;;5006799;28;20227;-68
2023/10/22 08:30:51;;;;;;;2.17;1.50;;;11.90;99.90;;;;;;5031658;28;20312;-68
2023/10/22 08:33:20;;;;;;;1.33;1.23;;;11.80;99.90;;;;;;5020295;28;20261;-68
2023/10/22 08:35:47;;;;;;;1.48;1.10;;;11.90;99.90;;;;;;5036689;28;20248;-68
2023/10/22 08:38:15;;;;;;;2.42;1.05;;;12.00;99.90;;;;;;4987642;28;20597;-68
2023/10/22 08:40:43;;;;;;;2.65;1.10;;;12.00;99.90;;;;;;5019298;28;20209;-68
2023/10/22 08:43:16;;;;;;;1.63;1.27;;;12.00;99.90;;;;;;5006394;28;20202;-68
2023/10/22 08:45:46;;;;;;;1.08;0.90;;;12.00;99.90;;;;;;5035135;28;20231;-68
2023/10/22 08:48:14;;;;;;;1.60;0.93;;;;;;;;;;5020021;28;20221;-68
2023/10/22 08:50:44;;;;;;;0.90;0.90;;;12.00;99.90;;;;;;5009840;28;20233;-68
2023/10/22 08:53:13;;;;;;;2.25;1.00;;;12.00;99.90;;;;;;4992049;28;20228;-68
2023/10/22 08:55:44;;;;;;;2.28;1.10;;;13.10;99.90;;;;;;5001408;28;20711;-68
2023/10/22 08:58:12;;;;;;;0.95;0.93;;;12.00;99.90;;;;;;5006982;28;20223;-68
2023/10/22 09:00:45;;;;;;;1.40;0.93;;;11.90;99.90;;;;;;5032294;28;20606;-68
2023/10/22 09:03:11;;;;;;;1.35;1.17;;;11.90;99.90;;;;;;5020790;28;20216;-68
2023/10/22 09:05:39;;;;;;;1.27;1.17;;;12.00;99.90;;;;;;5009411;28;20225;-68
2023/10/22 09:08:11;;;;;;;1.00;1.00;;;11.80;99.90;;;;;;4990437;28;20225;-68
2023/10/22 09:10:38;;;;;;;1.75;1.20;;;11.90;99.90;;;;;;5027757;28;20228;-68
2023/10/22 09:13:13;;;;;;;1.92;1.10;;;11.90;99.90;;;;;;5004777;28;20638;-68
2023/10/22 09:15:41;;;;;;;2.70;1.40;;;11.90;99.90;;;;;;5024051;28;20212;-68
2023/10/22 09:18:08;;;;;;;2.17;1.50;;;11.80;99.90;;;;;;5017701;28;20232;-68
2023/10/22 09:20:35;;;;;;;2.40;1.25;;;12.00;99.90;;;;;;5027662;28;20224;-68
2023/10/22 09:23:18;;;;;;;3.47;1.45;;;12.10;99.90;;;;;;4986858;28;20907;-68
2023/10/22 09:25:46;;;;;;;2.33;1.40;;;12.00;99.90;;;;;;5021733;28;20222;-68
2023/10/22 09:28:15;;;;;;;5.35;1.63;;;11.20;99.90;;;;;;4993760;28;20213;-68
2023/10/22 09:30:42;;;;;;;3.50;1.70;;;12.00;99.90;;;;;;5030775;28;20239;-68
2023/10/22 09:33:10;;;;;;;2.83;1.60;;;12.00;99.90;;;;;;5023590;28;20225;-68
2023/10/22 09:35:37;;;;;;;1.73;1.50;;;11.90;99.90;;;;;;5023820;28;20569;-68
2023/10/22 09:38:04;;;;;;;4.53;2.03;;;11.90;99.90;;;;;;4985927;28;20237;-68
2023/10/22 09:40:34;;;;;;;4.75;1.98;;;11.90;99.90;;;;;;5014054;28;20401;-69
2023/10/22 09:43:04;;;;;;;3.22;2.00;;;12.00;99.90;;;;;;4999303;28;20229;-69
2023/10/22 09:45:32;;;;;;;4.28;2.08;;;12.00;99.90;;;;;;4990387;28;20916;-69
2023/10/22 09:48:06;;;;;;;3.72;1.70;;;12.10;99.90;;;;;;5021941;28;21024;-68
2023/10/22 09:50:36;;;;;;;5.60;2.25;;;12.20;99.90;;;;;;5029593;28;20228;-68
2023/10/22 09:53:05;;;;;;;2.80;2.20;;;12.20;99.90;;;;;;4989963;28;20211;-68
2023/10/22 09:55:36;;;;;;;2.40;1.90;;;11.70;99.90;;;;;;5024695;28;20483;-68
2023/10/22 09:58:03;;;;;;;3.38;2.00;;;12.30;99.90;;;;;;5029921;28;20193;-68
2023/10/22 10:00:30;;;;;;;3.20;1.73;;;12.40;99.90;;;;;;5005106;28;20216;-68
2023/10/22 10:02:59;;;;;;;3.60;2.20;;;12.20;99.90;;;;;;5021971;28;20266;-68
2023/10/22 10:05:26;;;;;;;6.15;2.20;;;12.40;99.90;;;;;;5023727;28;21659;-68
2023/10/22 10:07:53;;;;;;;7.85;2.10;;;12.50;99.90;;;;;;5014807;28;20319;-68
2023/10/22 10:10:21;;;;;;;5.82;2.00;;;12.50;99.90;;;;;;4975867;28;20227;-67
2023/10/22 10:12:49;;;;;;;3.03;1.73;;;12.50;99.90;;;;;;5033150;28;21160;-68
2023/10/22 10:15:31;;;;;;;2.15;1.90;;;12.60;99.90;;;;;;5004566;28;20212;-68
2023/10/22 10:18:00;;;;;;;3.25;1.67;;;12.50;99.90;;;;;;5034347;28;20598;-68
2023/10/22 10:20:30;;;;;;;2.85;1.77;;;12.80;99.90;;;;;;5035238;28;20233;-68
2023/10/22 10:23:08;;;;;;;3.53;2.35;;;12.80;99.90;;;;;;5033844;28;20228;-68
2023/10/22 10:25:36;;;;;;;8.20;1.90;;;12.80;99.90;;;;;;4992028;28;20212;-68
2023/10/22 10:28:08;;;;;;;5.53;2.17;;;12.70;99.90;;;;;;5038250;28;20429;-68
2023/10/22 10:30:36;;;;;;;2.15;1.70;;;12.60;99.90;;;;;;5005373;28;20224;-68
2023/10/22 10:33:04;;;;;;;5.90;2.08;;;12.60;99.90;;;;;;5029627;28;20251;-68
2023/10/22 10:35:42;;;;;;;2.03;1.83;;;12.70;99.90;;;;;;5035733;28;20205;-68
2023/10/22 10:38:23;;;;;;;6.28;2.17;;;12.70;99.90;;;;;;5030107;28;22217;-68
2023/10/22 10:40:51;;;;;;;3.00;1.90;;;12.70;99.90;;;;;;4991413;28;20224;-68
2023/10/22 10:43:20;;;;;;;2.17;2.00;;;12.70;99.90;;;;;;5033083;28;20227;-68
2023/10/22 10:46:27;;;;;;;4.43;1.85;;;12.70;99.90;;;;;;5010608;28;23424;-68
2023/10/22 10:48:53;;;;;;;3.05;1.67;;;12.70;99.90;;;;;;4953482;28;20684;-67
2023/10/22 10:51:21;;;;;;;2.13;1.70;;;12.70;99.90;;;;;;5010014;28;20232;-68
2023/10/22 10:54:17;;;;;;;4.35;1.85;;;12.70;99.90;;;;;;5017317;28;20312;-68
2023/10/22 10:56:52;;;;;;;1.60;1.50;;;12.80;99.90;;;;;;4985648;28;20211;-68
2023/10/22 10:59:27;;;;;;;5.20;1.88;;;12.80;99.90;;;;;;5034740;28;20283;-68
2023/10/22 11:02:02;;;;;;;4.90;1.83;;;12.80;99.90;;;;;;5012825;28;20247;-68
2023/10/22 11:04:29;;;;;;;6.28;2.33;;;12.80;99.90;;;;;;5020856;28;20960;-68
2023/10/22 11:06:56;;;;;;;4.47;2.00;;;12.80;99.90;;;;;;5013622;28;20232;-68
2023/10/22 11:09:23;;;;;;;3.42;1.58;;;12.90;99.90;;;;;;5019859;28;20578;-68
2023/10/22 11:12:03;;;;;;;4.13;1.80;;;12.90;99.90;;;;;;4990358;28;21401;-67
2023/10/22 11:14:31;;;;;;;2.45;1.70;;;12.90;99.90;;;;;;5021607;28;20244;-68
2023/10/22 11:16:59;;;;;;;3.45;1.63;;;13.00;99.90;;;;;;5010809;28;20728;-68
2023/10/22 11:19:28;;;;;;;2.63;1.33;;;13.00;99.90;;;;;;5031358;28;20284;-68
2023/10/22 11:21:55;;;;;;;3.45;1.60;;;13.00;99.90;;;;;;5028994;28;20200;-68
2023/10/22 11:24:24;;;;;;;3.55;1.50;;;13.10;99.90;;;;;;5030136;28;22938;-67
2023/10/22 11:26:52;;;;;;;1.58;1.45;;;13.10;99.90;;;;;;4983654;28;20236;-68
2023/10/22 11:29:19;;;;;;;2.03;1.55;;;13.10;99.90;;;;;;5018542;28;20774;-68
2023/10/22 11:31:56;;;;;;;5.70;1.38;;;13.20;99.90;;;;;;5029335;28;20236;-68
2023/10/22 11:34:23;;;;;;;6.38;1.33;;;13.20;99.90;;;;;;5032374;28;20228;-67
2023/10/22 11:36:57;;;;;;;8.18;1.35;;;13.20;99.90;;;;;;5017949;28;20216;-68
2023/10/22 11:39:31;;;;;;;3.00;1.20;;;13.20;99.90;;;;;;5027159;28;20217;-67
2023/10/22 11:41:59;;;;;;;1.20;1.10;;;13.40;99.90;;;;;;4989384;28;20292;-68
2023/10/22 11:44:30;;;;;;;2.35;1.67;;;13.20;99.90;;;;;;5034502;28;20201;-67
2023/10/22 11:47:02;;;;;;;1.65;0.70;;;13.10;99.90;;;;;;5022123;28;20205;-67
2023/10/22 11:49:29;;;;;;;2.65;0.98;;;13.20;99.90;;;;;;5008531;28;20583;-67
2023/10/22 11:51:56;;;;;;;3.22;1.17;;;12.80;99.90;;;;;;5025273;28;20251;-67
2023/10/22 11:54:48;;;;;;;2.53;0.88;;;13.20;99.90;;;;;;5028232;28;20571;-67
2023/10/22 11:57:15;;;;;;;6.15;1.05;;;13.20;99.90;;;;;;4991730;28;21751;-68
2023/10/22 11:59:41;;;;;;;5.03;1.02;;;13.10;99.90;;;;;;5026057;28;20201;-67
2023/10/22 12:02:10;;;;;;;3.25;1.00;;;13.10;99.90;;;;;;5025363;28;20204;-67
2023/10/22 12:04:37;;;;;;;0.73;0.73;;;13.20;99.90;;;;;;5008469;28;20352;-67
2023/10/22 12:07:04;;;;;;;1.30;0.82;;;13.10;99.90;;;;;;5028131;28;20205;-67
2023/10/22 12:09:31;;;;;;;0.50;0.50;;;12.90;99.90;;;;;;5043567;28;20203;-67
2023/10/22 12:11:57;;;;;;;0.85;0.68;;;13.20;99.90;;;;;;5026863;28;20719;-67
2023/10/22 12:14:24;;;;;;;1.60;0.90;;;13.10;99.90;;;;;;4995551;28;20205;-68
2023/10/22 12:16:51;;;;;;;1.90;0.90;;;13.10;99.90;;;;;;5031010;28;21038;-67
2023/10/22 12:19:19;;;;;;;1.63;0.98;;;13.50;99.90;;;;;;5027420;28;20721;-67
2023/10/22 12:21:46;;;;;;;0.98;0.82;;;13.10;99.90;;;;;;5015142;28;20866;-67
2023/10/22 12:24:13;;;;;;;2.15;0.80;;;13.10;99.90;;;;;;5024449;28;20231;-67
2023/10/22 12:26:39;;;;;;;0.90;0.90;;;13.10;99.90;;;;;;5034036;28;20205;-66
2023/10/22 12:29:06;;;;;;;1.25;0.85;;;13.10;99.90;;;;;;5000763;28;20610;-67
2023/10/22 12:31:33;;;;;;;1.20;0.90;;;;;;;;;;5028085;28;20229;-67
2023/10/22 12:34:00;;;;;;;1.35;0.90;;;13.20;99.90;;;;;;4993292;28;20237;-67
2023/10/22 12:36:28;;;;;;;2.35;0.93;;;13.20;99.90;;;;;;4954834;28;20224;-67
2023/10/22 12:38:55;;;;;;;3.97;0.95;;;13.30;99.90;;;;;;5023371;28;20213;-67
2023/10/22 12:41:23;;;;;;;1.17;0.90;;;16.70;99.90;;;;;;5021061;28;20934;-67
2023/10/22 12:43:50;;;;;;;1.00;0.93;;;13.20;99.90;;;;;;5021985;28;20262;-67
2023/10/22 12:46:17;;;;;;;3.63;0.90;;;13.20;99.90;;;;;;5009942;28;20224;-67
2023/10/22 12:48:44;;;;;;;3.10;1.05;;;13.20;99.90;;;;;;5006390;28;20297;-67
2023/10/22 12:51:11;;;;;;;1.83;1.15;;;13.20;99.90;;;;;;5002740;28;20738;-67
2023/10/22 12:53:39;;;;;;;1.90;0.88;;;13.20;99.90;;;;;;5022746;28;20224;-67